Aérodrome :
LOGIN :

S'inscrire | Disclaimer

   EN    FR    IT 

 










Légende :    VFR   VFR Marginal   IFR   IFR Intensif   IFR Très Intensif
Visi : 
Plafond : 
>= 8 km
>= 3000ft
5 à 8 km
1000 à 3000 ft
1500m à 5 km
500 à 1000 ft
800 à 1500m
200 à 500 ft
< 800m
< 200 ft
Symboles :   Orages  Brouillard  Fortes neiges  Fortes précipitations  Vent > 20 kt
SIGMETs :   Divers  Orages  Givrage  Turbulence  Onde Orograph.  Cendres Volcan.







- Altitude de l'aérodrome : 1345 ft
- Code IATA : FRZ


ETHF - Fritzlar

DERNIER METAR :
  • 281720Z 29005KT 9999 FEW070 18/02 Q1020 BLU+

METARs EXPIRÉS :
  • 281620Z 27011KT 9999 FEW070 20/01 Q1020 BLU+
  • 281520Z 19011KT 9999 FEW060 20/05 Q1019 BLU+
  • 281500Z 21010KT 9999 FEW060 20/04 Q1020 BLU+FCST CANCEL
  • 281420Z 22008KT 9999 FEW060 20/04 Q1020 BLU+BLU+

TAF AMD TAF ETHF
Valide du 28 à 14h jusqu'au 28 à 23h UTC


281431Z 2814/2823 22008KT 9999 NSW SCT300 CANCEL 1500
Pas de NOTAMs connus pour ce terrain.



MET'MAP, la Météo Aéronautique d'un coup d'oeil ! - Copyright ORBIFLY Décembre 2007 - Disclaimer

ORBIFLY MET'MAP TEAM :

Programmation & Développement : Alexandra Zaïnal
Conception & Développement : Baudouin d'Aumeries
Co-Programmation & Développement : Marc-Olivier Méhu
Soutien technique & logistique : Manuel Goepfert

Contact : metmap@orbifly.com




SOURCES & CREDITS :

   NOAA